CU-0019 weather

Altagracia Airport
Santiago de Cuba, Cuba

Public forecast

Using degrees Celsius for public forecast. Weather courtesy of forecast.io.

METAR (pilot weather report)

Closest report is Frank Pais International Airport, 25.8 nm (47.7 km) NNW. Retrieved 2019/05/24 05:50 UTC (33 minutes ago):

MUHG 240550Z 09004KT 9000 BKN080 23/21 Q1015

TAF (pilot weather forecast)

Closest forecast is Frank Pais International Airport, 25.8 nm (47.7 km) NNW. Retrieved 2019/05/24 06:03 UTC (20 minutes ago):

TAF MUHG 240500Z 2406/2506 10005KT 9000 SCT020 BECMG 2415/2417 09015KT BECMG 2502/2504 10005KT